createdAt,value
2022-10-23T00:00:50.419Z,92896.88
2022-10-23T00:03:16.892Z,92895.16
2022-10-23T00:05:43.370Z,92899.31
2022-10-23T00:08:09.755Z,92892.50
2022-10-23T00:10:36.249Z,92888.09
2022-10-23T00:13:02.841Z,92886.81
2022-10-23T00:15:29.277Z,92888.69
2022-10-23T00:17:55.682Z,92889.78
2022-10-23T00:20:22.462Z,92884.34
2022-10-23T00:22:48.843Z,92872.84
2022-10-23T00:25:16.355Z,92889.66
2022-10-23T00:27:43.403Z,92883.84
2022-10-23T00:30:10.756Z,92873.72
2022-10-23T00:32:37.297Z,92870.88
2022-10-23T00:35:04.395Z,92872.94
2022-10-23T00:37:30.836Z,92866.38
2022-10-23T00:39:57.371Z,92867.66
2022-10-23T00:42:24.003Z,92868.22
2022-10-23T00:44:50.332Z,92867.13
2022-10-23T00:47:17.270Z,92860.28
2022-10-23T00:49:43.771Z,92866.09
2022-10-23T00:52:12.772Z,92871.31
2022-10-23T00:54:42.132Z,92865.06
2022-10-23T00:57:13.069Z,92862.47
2022-10-23T00:59:40.012Z,92866.66
2022-10-23T01:02:06.617Z,92861.47
2022-10-23T01:04:33.872Z,92863.00
2022-10-23T01:07:22.156Z,92857.22
2022-10-23T01:10:15.057Z,92853.25
2022-10-23T01:12:47.376Z,92856.16
2022-10-23T01:15:43.078Z,92853.53
2022-10-23T01:18:12.295Z,92856.16
2022-10-23T01:20:48.730Z,92853.47
2022-10-23T01:23:52.331Z,92851.41
2022-10-23T01:26:33.524Z,92846.72
2022-10-23T01:29:14.869Z,92845.66
2022-10-23T01:31:56.943Z,92850.41
2022-10-23T01:34:30.662Z,92841.22
2022-10-23T01:37:01.733Z,92839.66
2022-10-23T01:39:35.889Z,92841.22
2022-10-23T01:42:11.362Z,92837.53
2022-10-23T01:44:45.545Z,92841.81
2022-10-23T01:47:14.020Z,92836.78
2022-10-23T01:49:53.529Z,92841.25
2022-10-23T01:52:22.554Z,92826.31
2022-10-23T01:54:53.484Z,92828.44
2022-10-23T01:57:22.686Z,92824.28
2022-10-23T02:00:01.551Z,92821.66
2022-10-23T02:02:30.822Z,92816.38
2022-10-23T02:05:03.318Z,92811.44
2022-10-23T02:07:30.247Z,92814.59
2022-10-23T02:09:57.561Z,92806.25
2022-10-23T02:12:53.952Z,92803.84
2022-10-23T02:15:37.611Z,92795.22
2022-10-23T02:18:30.907Z,92796.00
2022-10-23T02:21:28.994Z,92792.84
2022-10-23T02:24:07.455Z,92794.91
2022-10-23T02:26:42.363Z,92794.16
2022-10-23T02:29:24.932Z,92795.19
2022-10-23T02:31:51.372Z,92795.44
2022-10-23T02:34:19.217Z,92798.31
2022-10-23T02:36:46.144Z,92798.56
2022-10-23T02:39:12.801Z,92791.19
2022-10-23T02:41:46.896Z,92791.19
2022-10-23T02:44:40.625Z,92785.94
2022-10-23T02:47:21.239Z,92782.25
2022-10-23T02:50:06.866Z,92781.69
2022-10-23T02:52:58.170Z,92776.44
2022-10-23T02:55:30.509Z,92781.69
2022-10-23T02:58:04.131Z,92776.41
2022-10-23T03:00:33.036Z,92779.53
2022-10-23T03:03:05.908Z,92774.25
2022-10-23T03:05:36.285Z,92778.66
2022-10-23T03:08:05.041Z,92778.44
2022-10-23T03:10:31.488Z,92779.44
2022-10-23T03:12:57.893Z,92773.13
2022-10-23T03:15:25.029Z,92770.78
2022-10-23T03:17:52.050Z,92755.06
2022-10-23T03:20:18.491Z,92762.59
2022-10-23T03:22:45.723Z,92759.19
2022-10-23T03:25:12.764Z,92757.84
2022-10-23T03:27:39.161Z,92758.03
2022-10-23T03:30:09.814Z,92758.78
2022-10-23T03:32:38.572Z,92756.66
2022-10-23T03:35:05.956Z,92754.59
2022-10-23T03:37:32.706Z,92762.44
2022-10-23T03:40:00.894Z,92759.03
2022-10-23T03:42:30.643Z,92757.94
2022-10-23T03:44:57.085Z,92754.03
2022-10-23T03:47:23.964Z,92754.59
2022-10-23T03:49:50.391Z,92757.19
2022-10-23T03:52:16.970Z,92755.63
2022-10-23T03:54:43.448Z,92756.91
2022-10-23T03:57:10.608Z,92754.72
2022-10-23T03:59:37.059Z,92753.38
2022-10-23T04:02:05.526Z,92759.97
2022-10-23T04:04:32.007Z,92762.34
2022-10-23T04:06:59.287Z,92757.91
2022-10-23T04:09:26.481Z,92746.66
2022-10-23T04:11:52.902Z,92742.00
2022-10-23T04:14:19.294Z,92746.22
2022-10-23T04:16:46.823Z,92743.06
2022-10-23T04:19:13.266Z,92750.44
2022-10-23T04:21:40.856Z,92740.78
2022-10-23T04:24:07.501Z,92740.03
2022-10-23T04:26:34.058Z,92739.91
2022-10-23T04:29:00.446Z,92742.78
2022-10-23T04:31:28.540Z,92741.44
2022-10-23T04:33:55.355Z,92741.19
2022-10-23T04:36:28.909Z,92743.06
2022-10-23T04:38:58.282Z,92749.63
2022-10-23T04:41:24.733Z,92743.56
2022-10-23T04:43:51.258Z,92741.25
2022-10-23T04:46:17.722Z,92735.94
2022-10-23T04:48:46.920Z,92730.25
2022-10-23T04:51:46.110Z,92738.34
2022-10-23T04:54:36.542Z,92743.56
2022-10-23T04:57:20.984Z,92744.13
2022-10-23T05:00:07.723Z,92740.50
2022-10-23T05:02:48.210Z,92746.19
2022-10-23T05:05:17.410Z,92741.50
2022-10-23T05:07:56.711Z,92738.38
2022-10-23T05:10:38.034Z,92742.56
2022-10-23T05:13:11.076Z,92728.94
2022-10-23T05:15:39.183Z,92722.97
2022-10-23T05:18:13.058Z,92726.38
2022-10-23T05:20:40.330Z,92715.91
2022-10-23T05:23:11.408Z,92716.13
2022-10-23T05:25:38.253Z,92716.91
2022-10-23T05:28:13.738Z,92713.25
2022-10-23T05:30:41.755Z,92712.97
2022-10-23T05:33:10.122Z,92709.53
2022-10-23T05:35:42.171Z,92714.75
2022-10-23T05:38:09.313Z,92722.56
2022-10-23T05:43:14.664Z,92725.78
2022-10-23T05:45:50.096Z,92716.13
2022-10-23T05:48:35.630Z,92719.78
2022-10-23T05:51:22.156Z,92713.50
2022-10-23T05:53:56.861Z,92727.09
2022-10-23T05:56:41.433Z,92732.22
2022-10-23T05:59:10.700Z,92726.97
2022-10-23T06:01:56.153Z,92715.63
2022-10-23T06:04:38.761Z,92718.19
2022-10-23T06:07:32.327Z,92710.88
2022-10-23T06:10:05.127Z,92723.16
2022-10-23T06:12:34.238Z,92724.44
2022-10-23T06:15:00.863Z,92727.78
2022-10-23T06:17:43.653Z,92728.81
2022-10-23T06:20:10.937Z,92733.56
2022-10-23T06:22:40.207Z,92725.00
2022-10-23T06:25:22.250Z,92723.16
2022-10-23T06:27:50.899Z,92723.69
2022-10-23T06:30:17.753Z,92726.06
2022-10-23T06:32:46.436Z,92726.84
2022-10-23T06:35:14.551Z,92717.19
2022-10-23T06:37:41.050Z,92716.19
2022-10-23T06:40:30.203Z,92728.06
2022-10-23T06:43:03.550Z,92725.75
2022-10-23T06:45:40.621Z,92719.16
2022-10-23T06:48:13.345Z,92725.00
2022-10-23T06:50:56.095Z,92729.25
2022-10-23T06:53:33.482Z,92732.19
2022-10-23T06:56:08.349Z,92722.75
2022-10-23T06:58:38.158Z,92723.53
2022-10-23T07:01:16.238Z,92729.41
2022-10-23T07:03:44.287Z,92733.94
2022-10-23T07:06:11.745Z,92723.22
2022-10-23T07:08:38.942Z,92733.75
2022-10-23T07:11:20.637Z,92729.09
2022-10-23T07:13:48.812Z,92721.59
2022-10-23T07:16:22.592Z,92719.84
2022-10-23T07:18:58.667Z,92724.88
2022-10-23T07:21:35.565Z,92736.72
2022-10-23T07:24:17.556Z,92717.03
2022-10-23T07:26:44.774Z,92722.88
2022-10-23T07:29:12.567Z,92724.56
2022-10-23T07:31:39.377Z,92716.53
2022-10-23T07:34:40.998Z,92706.66
2022-10-23T07:37:29.977Z,92711.22
2022-10-23T07:39:58.750Z,92714.13
2022-10-23T07:42:25.529Z,92713.09
2022-10-23T07:44:52.029Z,92714.13
2022-10-23T07:47:18.469Z,92706.81
2022-10-23T07:49:49.055Z,92717.56
2022-10-23T07:52:15.799Z,92711.56
2022-10-23T07:55:18.088Z,92712.09
2022-10-23T07:57:48.729Z,92720.78
2022-10-23T08:00:25.624Z,92719.75
2022-10-23T08:03:00.124Z,92721.34
2022-10-23T08:05:26.893Z,92706.91
2022-10-23T08:07:58.412Z,92706.41
2022-10-23T08:10:24.894Z,92715.63
2022-10-23T08:12:51.911Z,92717.19
2022-10-23T08:15:21.562Z,92706.41
2022-10-23T08:17:56.402Z,92714.00
2022-10-23T08:20:39.905Z,92699.81
2022-10-23T08:23:07.459Z,92705.84
2022-10-23T08:25:35.949Z,92701.59
2022-10-23T08:28:05.490Z,92701.31
2022-10-23T08:30:38.878Z,92701.00
2022-10-23T08:33:07.223Z,92690.97
2022-10-23T08:35:39.882Z,92695.63
2022-10-23T08:38:07.772Z,92704.75
2022-10-23T08:40:45.300Z,92687.84
2022-10-23T08:43:30.099Z,92690.09
2022-10-23T08:46:15.290Z,92689.47
2022-10-23T08:49:17.651Z,92688.75
2022-10-23T08:51:53.570Z,92682.28
2022-10-23T08:54:33.034Z,92680.31
2022-10-23T08:57:14.710Z,92678.28
2022-10-23T08:59:47.770Z,92679.19
2022-10-23T09:02:24.183Z,92674.28
2022-10-23T09:04:53.617Z,92668.31
2022-10-23T09:07:26.490Z,92674.75
2022-10-23T09:10:07.682Z,92675.34
2022-10-23T09:12:34.069Z,92665.69
2022-10-23T09:15:26.124Z,92672.66
2022-10-23T09:18:01.965Z,92679.84
2022-10-23T09:20:35.739Z,92679.84
2022-10-23T09:23:07.776Z,92672.19
2022-10-23T09:25:38.274Z,92676.72
2022-10-23T09:28:05.772Z,92658.75
2022-10-23T09:30:41.970Z,92669.34
2022-10-23T09:33:16.591Z,92669.16
2022-10-23T09:35:59.954Z,92662.91
2022-10-23T09:38:27.570Z,92664.56
2022-10-23T09:40:54.077Z,92659.66
2022-10-23T09:43:23.284Z,92659.47
2022-10-23T09:45:58.914Z,92661.31
2022-10-23T09:48:26.143Z,92661.91
2022-10-23T09:50:59.790Z,92650.78
2022-10-23T09:53:34.226Z,92646.16
2022-10-23T09:56:11.616Z,92651.81
2022-10-23T09:58:54.442Z,92647.69
2022-10-23T10:01:25.668Z,92644.78
2022-10-23T10:03:55.513Z,92630.50
2022-10-23T10:06:33.265Z,92631.34
2022-10-23T10:09:03.750Z,92636.28
2022-10-23T10:11:51.631Z,92620.22
2022-10-23T10:14:34.779Z,92624.03
2022-10-23T10:17:19.749Z,92643.28
2022-10-23T10:19:56.597Z,92657.09
2022-10-23T10:22:39.365Z,92660.59
2022-10-23T10:25:24.967Z,92653.00
2022-10-23T10:28:16.337Z,92656.72
2022-10-23T10:31:17.749Z,92656.59
2022-10-23T10:33:52.838Z,92650.34
2022-10-23T10:36:34.493Z,92661.44
2022-10-23T10:39:03.722Z,92658.38
2022-10-23T10:41:37.605Z,92649.00
2022-10-23T10:44:32.352Z,92635.47
2022-10-23T10:47:09.784Z,92640.03
2022-10-23T10:49:46.233Z,92633.97
2022-10-23T10:52:34.224Z,92631.16
2022-10-23T10:55:25.296Z,92633.66
2022-10-23T10:58:03.779Z,92632.41
2022-10-23T11:00:33.329Z,92624.28
2022-10-23T11:03:21.811Z,92633.66
2022-10-23T11:05:50.535Z,92626.16
2022-10-23T11:08:27.814Z,92626.91
2022-10-23T11:10:58.727Z,92619.22
2022-10-23T11:13:40.410Z,92628.13
2022-10-23T11:16:12.903Z,92619.03
2022-10-23T11:18:43.006Z,92610.75
2022-10-23T11:21:18.755Z,92610.22
2022-10-23T11:23:57.587Z,92608.19
2022-10-23T11:26:35.191Z,92606.28
2022-10-23T11:29:20.737Z,92608.88
2022-10-23T11:32:02.181Z,92603.75
2022-10-23T11:34:50.780Z,92600.59
2022-10-23T11:37:19.357Z,92603.88
2022-10-23T11:40:07.518Z,92597.63
2022-10-23T11:42:39.991Z,92599.56
2022-10-23T11:45:26.252Z,92599.91
2022-10-23T11:48:16.591Z,92595.25
2022-10-23T11:50:46.102Z,92582.31
2022-10-23T11:53:48.110Z,92580.31
2022-10-23T11:56:19.393Z,92577.19
2022-10-23T11:58:49.663Z,92571.72
2022-10-23T12:01:29.835Z,92561.69
2022-10-23T12:04:14.557Z,92564.50
2022-10-23T12:06:51.092Z,92556.50
2022-10-23T12:09:26.287Z,92551.41
2022-10-23T12:12:15.122Z,92552.28
2022-10-23T12:14:49.973Z,92550.13
2022-10-23T12:17:22.587Z,92560.09
2022-10-23T12:19:55.903Z,92554.75
2022-10-23T12:22:28.228Z,92543.75
2022-10-23T12:25:07.886Z,92550.09
2022-10-23T12:27:45.810Z,92550.09
2022-10-23T12:30:22.371Z,92544.06
2022-10-23T12:33:13.146Z,92539.03
2022-10-23T12:35:54.137Z,92530.84
2022-10-23T12:38:26.704Z,92523.19
2022-10-23T12:41:11.361Z,92522.59
2022-10-23T12:43:38.956Z,92526.38
2022-10-23T12:46:20.147Z,92516.84
2022-10-23T12:48:56.501Z,92515.44
2022-10-23T12:51:32.983Z,92516.13
2022-10-23T12:53:59.947Z,92514.66
2022-10-23T12:56:29.541Z,92514.56
2022-10-23T12:59:02.387Z,92516.25
2022-10-23T13:01:31.870Z,92521.81
2022-10-23T13:06:50.029Z,92500.44
2022-10-23T13:09:39.386Z,92498.84
2022-10-23T13:12:25.236Z,92504.38
2022-10-23T13:14:56.191Z,92498.09
2022-10-23T13:17:34.110Z,92509.75
2022-10-23T13:20:24.429Z,92510.19
2022-10-23T13:23:00.566Z,92503.81
2022-10-23T13:25:27.636Z,92501.59
2022-10-23T13:28:08.366Z,92482.91
2022-10-23T13:30:38.527Z,92489.69
2022-10-23T13:33:41.344Z,92488.41
2022-10-23T13:36:13.806Z,92485.00
2022-10-23T13:38:41.571Z,92482.56
2022-10-23T13:41:15.846Z,92480.78
2022-10-23T13:43:43.338Z,92479.00
2022-10-23T13:46:21.215Z,92482.28
2022-10-23T13:48:48.499Z,92489.50
2022-10-23T13:51:19.662Z,92487.22
2022-10-23T13:53:46.343Z,92484.91
2022-10-23T13:56:13.859Z,92486.22
2022-10-23T13:58:40.247Z,92483.72
2022-10-23T14:01:07.371Z,92490.44
2022-10-23T14:03:33.823Z,92488.50
2022-10-23T14:06:01.274Z,92482.53
2022-10-23T14:08:27.662Z,92484.47
2022-10-23T14:10:54.045Z,92485.91
2022-10-23T14:13:20.438Z,92478.81
2022-10-23T14:15:55.830Z,92478.56
2022-10-23T14:18:22.382Z,92481.44
2022-10-23T14:20:48.920Z,92477.31
2022-10-23T14:23:15.373Z,92482.69
2022-10-23T14:25:41.770Z,92482.44
2022-10-23T14:28:08.189Z,92480.88
2022-10-23T14:30:37.154Z,92472.56
2022-10-23T14:33:04.479Z,92467.72
2022-10-23T14:35:30.928Z,92468.81
2022-10-23T14:37:58.441Z,92472.19
2022-10-23T14:40:25.368Z,92472.91
2022-10-23T14:42:51.753Z,92472.91
2022-10-23T14:45:18.193Z,92457.91
2022-10-23T14:47:44.835Z,92454.19
2022-10-23T14:50:12.086Z,92446.75
2022-10-23T14:52:38.473Z,92439.06
2022-10-23T14:55:05.191Z,92444.34
2022-10-23T14:57:31.565Z,92440.78
2022-10-23T14:59:57.957Z,92446.69
2022-10-23T15:02:24.375Z,92442.53
2022-10-23T15:04:50.783Z,92440.56
2022-10-23T15:07:17.315Z,92449.66
2022-10-23T15:09:43.693Z,92437.38
2022-10-23T15:12:10.093Z,92431.03
2022-10-23T15:14:36.503Z,92430.78
2022-10-23T15:17:03.685Z,92438.22
2022-10-23T15:19:30.160Z,92443.75
2022-10-23T15:21:56.537Z,92458.53
2022-10-23T15:24:23.064Z,92450.28
2022-10-23T15:26:51.417Z,92458.34
2022-10-23T15:29:19.246Z,92456.97
2022-10-23T15:31:53.651Z,92471.94
2022-10-23T15:34:24.004Z,92469.34
2022-10-23T15:36:51.315Z,92456.31
2022-10-23T15:39:21.606Z,92452.06
2022-10-23T15:41:51.458Z,92450.28
2022-10-23T15:44:20.337Z,92449.13
2022-10-23T15:46:48.257Z,92449.53
2022-10-23T15:49:15.389Z,92447.41
2022-10-23T15:51:42.831Z,92422.13
2022-10-23T15:54:16.265Z,92431.75
2022-10-23T15:56:43.490Z,92431.00
2022-10-23T15:59:09.987Z,92452.97
2022-10-23T16:01:37.566Z,92455.19
2022-10-23T16:04:04.276Z,92456.16
2022-10-23T16:06:31.150Z,92442.53
2022-10-23T16:08:58.054Z,92444.28
2022-10-23T16:11:27.289Z,92444.91
2022-10-23T16:13:54.950Z,92426.75
2022-10-23T16:16:21.384Z,92423.47
2022-10-23T16:18:48.567Z,92418.31
2022-10-23T16:21:25.911Z,92423.81
2022-10-23T16:23:55.011Z,92416.94
2022-10-23T16:26:22.360Z,92416.16
2022-10-23T16:28:56.101Z,92413.81
2022-10-23T16:31:23.435Z,92417.59
2022-10-23T16:33:51.117Z,92409.91
2022-10-23T16:36:18.674Z,92406.97
2022-10-23T16:39:19.572Z,92407.09
2022-10-23T16:42:05.257Z,92423.34
2022-10-23T16:44:56.693Z,92412.44
2022-10-23T16:47:23.151Z,92422.88
2022-10-23T16:49:49.571Z,92417.09
2022-10-23T16:52:16.183Z,92421.16
2022-10-23T16:54:43.437Z,92418.66
2022-10-23T16:57:09.813Z,92424.88
2022-10-23T16:59:36.906Z,92435.28
2022-10-23T17:02:03.438Z,92445.13
2022-10-23T17:04:29.923Z,92453.72
2022-10-23T17:06:56.463Z,92464.91
2022-10-23T17:09:23.550Z,92455.38
2022-10-23T17:11:52.957Z,92469.53
2022-10-23T17:14:21.074Z,92470.97
2022-10-23T17:16:50.099Z,92484.66
2022-10-23T17:22:11.072Z,92481.38
2022-10-23T17:24:38.592Z,92482.53
2022-10-23T17:27:05.608Z,92487.75
2022-10-23T17:29:32.046Z,92481.31
2022-10-23T17:31:58.917Z,92498.31
2022-10-23T17:34:26.044Z,92502.00
2022-10-23T17:36:54.509Z,92522.28
2022-10-23T17:39:24.970Z,92515.63
2022-10-23T17:41:51.746Z,92508.38
2022-10-23T17:44:18.169Z,92509.94
2022-10-23T17:46:44.644Z,92525.06
2022-10-23T17:49:11.915Z,92535.47
2022-10-23T17:51:38.395Z,92559.13
2022-10-23T17:54:07.865Z,92550.06
2022-10-23T17:56:36.416Z,92564.69
2022-10-23T17:59:07.274Z,92576.03
2022-10-23T18:01:34.148Z,92555.25
2022-10-23T18:04:02.773Z,92570.72
2022-10-23T18:06:33.109Z,92562.53
2022-10-23T18:09:01.335Z,92555.78
2022-10-23T18:11:37.356Z,92619.66
2022-10-23T18:14:04.347Z,92584.41
2022-10-23T18:16:30.787Z,92583.41
2022-10-23T18:19:00.122Z,92581.56
2022-10-23T18:21:27.063Z,92601.25
2022-10-23T18:23:53.717Z,92618.16
2022-10-23T18:26:23.090Z,92602.09
2022-10-23T18:28:52.046Z,92598.53
2022-10-23T18:31:19.898Z,92614.16
2022-10-23T18:33:47.263Z,92610.22
2022-10-23T18:36:24.973Z,92574.94
2022-10-23T18:38:51.613Z,92598.53
2022-10-23T18:41:19.582Z,92606.50
2022-10-23T18:43:46.158Z,92612.91
2022-10-23T18:46:13.490Z,92643.53
2022-10-23T18:48:40.771Z,92642.13
2022-10-23T18:51:32.161Z,92645.72
2022-10-23T18:54:01.048Z,92628.84
2022-10-23T18:56:27.960Z,92582.75
2022-10-23T18:58:56.896Z,92586.50
2022-10-23T19:01:24.451Z,92578.03
2022-10-23T19:03:51.048Z,92574.56
2022-10-23T19:06:17.705Z,92575.81
2022-10-23T19:08:44.418Z,92582.22
2022-10-23T19:11:12.331Z,92572.22
2022-10-23T19:13:40.276Z,92568.59
2022-10-23T19:16:12.286Z,92575.47
2022-10-23T19:18:42.362Z,92573.44
2022-10-23T19:21:09.244Z,92573.59
2022-10-23T19:23:37.893Z,92571.56
2022-10-23T19:26:08.794Z,92571.06
2022-10-23T19:28:37.853Z,92568.44
2022-10-23T19:31:04.828Z,92567.81
2022-10-23T19:33:32.491Z,92574.50
2022-10-23T19:36:01.249Z,92571.19
2022-10-23T19:38:31.769Z,92573.53
2022-10-23T19:40:58.166Z,92584.28
2022-10-23T19:43:24.571Z,92595.13
2022-10-23T19:45:50.972Z,92596.69
2022-10-23T19:48:17.393Z,92589.94
2022-10-23T19:50:44.175Z,92591.28
2022-10-23T19:53:10.645Z,92583.66
2022-10-23T19:55:37.150Z,92581.00
2022-10-23T19:58:03.549Z,92583.66
2022-10-23T20:00:30.146Z,92577.69
2022-10-23T20:02:56.539Z,92569.72
2022-10-23T20:05:22.964Z,92573.81
2022-10-23T20:07:50.646Z,92586.59
2022-10-23T20:10:17.174Z,92589.38
2022-10-23T20:12:47.497Z,92576.13
2022-10-23T20:15:23.454Z,92595.63
2022-10-23T20:17:49.827Z,92596.25
2022-10-23T20:20:16.354Z,92603.53
2022-10-23T20:22:44.103Z,92598.56
2022-10-23T20:25:10.752Z,92603.97
2022-10-23T20:30:09.116Z,92612.25
2022-10-23T20:32:35.560Z,92618.78
2022-10-23T20:35:01.947Z,92610.06
2022-10-23T20:37:28.346Z,92614.56
2022-10-23T20:39:55.302Z,92617.97
2022-10-23T20:42:21.897Z,92618.16
2022-10-23T20:44:48.272Z,92623.28
2022-10-23T20:47:14.703Z,92634.84
2022-10-23T20:49:41.079Z,92634.84
2022-10-23T20:52:07.483Z,92643.88
2022-10-23T20:54:35.833Z,92645.16
2022-10-23T20:57:02.223Z,92643.59
2022-10-23T20:59:28.706Z,92653.53
2022-10-23T21:01:56.241Z,92650.50
2022-10-23T21:04:26.524Z,92663.19
2022-10-23T21:07:09.406Z,92653.03
2022-10-23T21:09:37.647Z,92650.41
2022-10-23T21:12:04.412Z,92649.44
2022-10-23T21:14:30.899Z,92635.66
2022-10-23T21:16:57.300Z,92632.91
2022-10-23T21:19:23.738Z,92636.66
2022-10-23T21:21:50.162Z,92632.44
2022-10-23T21:24:17.331Z,92622.91
2022-10-23T21:26:44.613Z,92619.00
2022-10-23T21:29:19.693Z,92610.56
2022-10-23T21:31:59.554Z,92603.50
2022-10-23T21:34:27.079Z,92618.03
2022-10-23T21:37:12.418Z,92601.94
2022-10-23T21:39:40.625Z,92605.06
2022-10-23T21:42:07.084Z,92594.16
2022-10-23T21:44:33.590Z,92592.91
2022-10-23T21:46:59.998Z,92597.53
2022-10-23T21:49:26.473Z,92591.31
2022-10-23T21:51:54.653Z,92591.94
2022-10-23T21:54:21.060Z,92592.91
2022-10-23T21:56:51.033Z,92597.59
2022-10-23T21:59:24.057Z,92590.72
2022-10-23T22:01:51.526Z,92598.19
2022-10-23T22:04:19.336Z,92587.13
2022-10-23T22:06:47.659Z,92583.56
2022-10-23T22:09:17.322Z,92587.59
2022-10-23T22:11:43.743Z,92586.97
2022-10-23T22:14:10.593Z,92590.72
2022-10-23T22:16:37.195Z,92589.75
2022-10-23T22:19:03.846Z,92597.09
2022-10-23T22:21:30.910Z,92608.81
2022-10-23T22:23:58.917Z,92601.03
2022-10-23T22:26:28.793Z,92587.47
2022-10-23T22:28:57.405Z,92590.13
2022-10-23T22:31:27.537Z,92596.81
2022-10-23T22:33:55.131Z,92604.47
2022-10-23T22:36:21.769Z,92590.59
2022-10-23T22:38:48.542Z,92589.50
2022-10-23T22:41:15.550Z,92591.25
2022-10-23T22:43:41.933Z,92590.50
2022-10-23T22:46:17.126Z,92591.59
2022-10-23T22:48:43.960Z,92587.84
2022-10-23T22:51:15.834Z,92590.38
2022-10-23T22:53:43.781Z,92588.31
2022-10-23T22:56:13.030Z,92580.19
2022-10-23T22:58:39.670Z,92577.84
2022-10-23T23:01:14.462Z,92573.03
2022-10-23T23:03:41.236Z,92567.09
2022-10-23T23:06:09.267Z,92568.06
2022-10-23T23:08:37.505Z,92574.16
2022-10-23T23:11:05.304Z,92570.25
2022-10-23T23:13:32.148Z,92570.84
2022-10-23T23:15:58.543Z,92579.88
2022-10-23T23:18:25.718Z,92582.63
2022-10-23T23:20:52.108Z,92582.16
2022-10-23T23:23:18.949Z,92584.19
2022-10-23T23:25:49.207Z,92576.56
2022-10-23T23:28:17.699Z,92571.25
2022-10-23T23:33:19.282Z,92585.41
2022-10-23T23:35:46.698Z,92571.06
2022-10-23T23:38:13.205Z,92588.06
2022-10-23T23:40:40.201Z,92584.47
2022-10-23T23:43:06.851Z,92579.94
2022-10-23T23:45:33.277Z,92574.47
2022-10-23T23:47:59.698Z,92578.69
2022-10-23T23:50:27.831Z,92571.34
2022-10-23T23:52:54.239Z,92566.81
2022-10-23T23:55:20.650Z,92572.41
2022-10-23T23:57:47.347Z,92572.34
